Time;durP1;ratioP1;P1;durP2;ratioP2;P2;SDS_P1;SDS_P2;PMS_P1;PMS_P2;Temp;Humidity;BMP_temperature;BMP_pressure;BME280_temperature;BME280_humidity;BME280_pressure;Samples;Min_cycle;Max_cycle;Signal;HPM_P1;HPM_P2
2022/09/24 00:01:28;;;;;;;5.70;4.03;;;;;;;17.25;46.40;101086.13;5049476;27;99242;-67
2022/09/24 00:03:59;;;;;;;8.77;4.32;;;;;;;17.03;47.05;101094.50;5050201;27;97825;-67
2022/09/24 00:06:26;;;;;;;8.15;4.65;;;;;;;17.04;46.26;101096.22;5051913;27;96936;-69
2022/09/24 00:08:54;;;;;;;7.03;4.15;;;;;;;17.14;45.86;101086.72;5052049;27;99315;-68
2022/09/24 00:11:22;;;;;;;6.00;3.90;;;;;;;17.02;45.83;101097.25;5050302;27;98777;-68
2022/09/24 00:13:49;;;;;;;7.13;4.57;;;;;;;17.27;45.68;101084.22;5053715;27;96848;-67
2022/09/24 00:16:18;;;;;;;6.35;4.78;;;;;;;17.04;46.00;101090.03;5047139;27;96901;-69
2022/09/24 00:18:47;;;;;;;6.72;4.68;;;;;;;17.14;45.83;101088.53;5051315;27;99270;-68
2022/09/24 00:21:17;;;;;;;8.95;4.80;;;;;;;17.34;45.34;101088.25;5051134;27;99226;-68
2022/09/24 00:23:45;;;;;;;7.50;4.57;;;;;;;17.24;45.91;101083.56;5047123;27;97812;-68
2022/09/24 00:28:56;;;;;;;8.98;5.00;;;;;;;16.99;46.32;101081.44;5051154;27;96800;-68
2022/09/24 00:31:31;;;;;;;8.85;4.80;;;;;;;17.18;45.83;101078.56;5051760;27;98643;-69
2022/09/24 00:33:58;;;;;;;7.43;4.30;;;;;;;17.12;46.04;101072.63;5050776;27;97077;-69
2022/09/24 00:36:26;;;;;;;6.70;4.70;;;;;;;16.76;46.85;101072.03;5048967;27;96913;-70
2022/09/24 00:38:54;;;;;;;5.70;4.80;;;;;;;16.87;46.98;101069.63;5048453;27;98902;-69
2022/09/24 00:41:23;;;;;;;6.97;4.97;;;;;;;16.99;46.66;101074.28;5050035;27;99358;-68
2022/09/24 00:43:50;;;;;;;7.45;4.43;;;;;;;17.12;46.16;101067.28;5046401;27;96920;-68
2022/09/24 00:46:21;;;;;;;8.90;5.00;;;;;;;17.31;45.45;101066.22;5051243;27;96706;-69
2022/09/24 00:48:50;;;;;;;8.70;4.88;;;;;;;17.26;45.79;101061.16;5046028;27;98923;-68
2022/09/24 00:51:21;;;;;;;6.00;4.75;;;;;;;16.93;47.38;101060.44;5046542;27;98917;-68
2022/09/24 00:53:52;;;;;;;8.77;5.35;;;;;;;16.79;47.44;101058.53;5049097;27;98776;-69
2022/09/24 00:56:22;;;;;;;10.73;4.78;;;;;;;16.99;47.16;101063.59;5049525;27;96862;-69
2022/09/24 00:58:53;;;;;;;8.30;5.32;;;;;;;16.72;47.16;101058.00;5047119;27;98835;-69
2022/09/24 01:01:24;;;;;;;8.73;5.25;;;;;;;16.62;47.47;101055.94;5050246;27;98870;-68
2022/09/24 01:03:54;;;;;;;11.68;4.68;;;;;;;17.06;46.74;101051.63;5049572;27;96797;-68
2022/09/24 01:06:20;;;;;;;8.90;5.07;;;;;;;16.88;47.03;101051.78;5054655;27;97084;-69
2022/09/24 01:08:48;;;;;;;6.93;4.72;;;;;;;16.73;47.94;101045.53;5053452;27;99125;-69
2022/09/24 01:11:29;;;;;;;10.02;4.88;;;;;;;16.94;47.30;101046.97;5054458;27;98938;-69
2022/09/24 01:14:31;;;;;;;6.32;4.70;;;;;;;17.12;46.50;101045.06;5050632;27;96825;-69
2022/09/24 01:17:07;;;;;;;8.13;4.80;;;;;;;17.12;46.44;101035.25;5042654;27;97472;-69
2022/09/24 01:19:58;;;;;;;13.95;6.30;;;;;;;17.10;46.73;101042.47;5051290;27;99027;-69
2022/09/24 01:22:39;;;;;;;10.65;5.22;;;;;;;17.09;46.60;101039.91;5051287;27;98850;-68
2022/09/24 01:25:17;;;;;;;9.77;5.13;;;;;;;16.84;47.53;101036.91;5052684;27;96845;-67
2022/09/24 01:27:58;;;;;;;7.22;4.97;;;;;;;16.79;47.64;101033.66;5050866;27;97087;-68
2022/09/24 01:30:31;;;;;;;9.48;5.88;;;;;;;17.07;47.19;101026.63;5050908;27;98950;-68
2022/09/24 01:33:02;;;;;;;12.68;4.95;;;;;;;16.96;47.87;101029.06;5052417;27;97815;-69
2022/09/24 01:35:34;;;;;;;7.18;4.68;;;;;;;16.91;47.95;101030.28;5050123;27;96840;-68
2022/09/24 01:38:04;;;;;;;6.47;4.95;;;;;;;16.71;48.05;101029.59;5052924;27;96793;-68
2022/09/24 01:40:31;;;;;;;8.63;5.15;;;;;;;16.72;48.20;101027.81;5054020;27;100308;-69
2022/09/24 01:43:02;;;;;;;7.03;4.57;;;;;;;17.09;47.12;101029.22;5051937;27;99278;-68
2022/09/24 01:48:11;;;;;;;8.52;5.68;;;;;;;17.26;46.48;101012.22;5048901;27;96912;-68
2022/09/24 01:50:43;;;;;;;8.57;5.85;;;;;;;17.34;46.14;101015.28;5054036;27;99266;-68
2022/09/24 01:53:16;;;;;;;12.27;6.50;;;;;;;17.22;46.26;101010.66;5052926;27;98827;-68
2022/09/24 01:55:48;;;;;;;9.40;5.43;;;;;;;17.09;46.55;101010.53;5051568;27;96737;-69
2022/09/24 01:58:23;;;;;;;8.90;5.95;;;;;;;17.02;46.27;101007.34;5049088;27;97001;-69
2022/09/24 02:00:56;;;;;;;7.72;5.28;;;;;;;17.26;45.47;101010.41;5052830;27;99199;-69
2022/09/24 02:03:28;;;;;;;8.07;5.53;;;;;;;17.12;46.03;101010.38;5052778;27;98555;-68
2022/09/24 02:06:00;;;;;;;12.05;5.60;;;;;;;17.21;45.76;101011.63;5051748;27;96993;-68
2022/09/24 02:08:32;;;;;;;9.20;5.70;;;;;;;17.06;46.28;101006.25;5048304;27;97558;-68
2022/09/24 02:11:05;;;;;;;11.82;6.22;;;;;;;17.21;45.83;101001.78;5052062;27;99025;-69
2022/09/24 02:13:38;;;;;;;8.10;5.45;;;;;;;17.12;46.11;100999.69;5052524;27;99090;-70
2022/09/24 02:16:09;;;;;;;8.80;5.47;;;;;;;17.08;46.47;101003.47;5050529;27;96756;-69
2022/09/24 02:18:39;;;;;;;8.38;5.60;;;;;;;17.01;46.46;101004.75;5051197;27;98112;-69
2022/09/24 02:21:09;;;;;;;11.43;6.25;;;;;;;17.08;46.37;101003.47;5051046;27;99036;-70
2022/09/24 02:23:39;;;;;;;8.73;5.82;;;;;;;17.11;46.14;100998.81;5050472;27;99071;-69
2022/09/24 02:26:06;;;;;;;17.42;6.35;;;;;;;17.06;46.34;101000.91;5053273;27;96694;-69
2022/09/24 02:28:33;;;;;;;7.88;5.40;;;;;;;17.04;46.34;100996.59;5050237;27;97729;-68
2022/09/24 02:31:04;;;;;;;7.40;5.25;;;;;;;17.29;46.12;100990.66;5050311;27;99499;-68
2022/09/24 02:36:20;;;;;;;10.50;5.85;;;;;;;17.27;46.27;100988.06;5050532;27;96920;-68
2022/09/24 02:38:47;;;;;;;10.32;6.10;;;;;;;17.42;46.12;100991.66;5052585;27;97812;-68
2022/09/24 02:41:14;;;;;;;10.25;5.97;;;;;;;17.47;45.82;100987.75;5052362;27;97151;-69
2022/09/24 02:43:41;;;;;;;10.98;6.65;;;;;;;17.13;46.65;100988.88;5050389;27;99639;-69
2022/09/24 02:46:08;;;;;;;8.93;6.05;;;;;;;17.12;47.04;100989.00;5053347;27;96778;-69
2022/09/24 02:48:36;;;;;;;9.00;6.00;;;;;;;17.45;46.19;100989.66;5053969;27;96982;-68
2022/09/24 02:51:04;;;;;;;9.57;6.40;;;;;;;17.26;46.71;100989.06;5052996;27;98954;-69
2022/09/24 02:53:30;;;;;;;8.27;5.60;;;;;;;17.25;46.72;100987.31;5050501;27;100684;-69
2022/09/24 02:55:59;;;;;;;12.13;6.53;;;;;;;17.12;46.96;100997.88;5052401;27;97035;-69
2022/09/24 02:58:25;;;;;;;10.07;5.82;;;;;;;17.18;47.04;100990.44;5049249;27;97352;-69
2022/09/24 03:00:52;;;;;;;6.93;5.88;;;;;;;17.19;47.39;100987.69;5051843;27;99382;-69
2022/09/24 03:03:19;;;;;;;9.27;5.78;;;;;;;16.90;48.08;100989.38;5050718;27;98789;-69
2022/09/24 03:05:51;;;;;;;11.02;5.68;;;;;;;16.80;49.01;100993.53;5048802;27;96723;-68
2022/09/24 03:08:18;;;;;;;12.20;5.70;;;;;;;17.18;48.08;100980.63;5052915;27;96834;-69
2022/09/24 03:10:45;;;;;;;13.80;5.85;;;;;;;16.92;48.24;100987.50;5050658;27;99001;-69
2022/09/24 03:13:12;;;;;;;9.77;6.00;;;;;;;17.27;47.43;100981.88;5052111;27;99172;-69
2022/09/24 03:15:39;;;;;;;10.80;6.22;;;;;;;17.20;47.79;100992.06;5050849;27;97301;-70
2022/09/24 03:18:06;;;;;;;14.07;6.22;;;;;;;17.34;47.46;100980.56;5052144;27;96808;-68
2022/09/24 03:20:34;;;;;;;12.20;5.70;;;;;;;17.19;47.84;100981.50;5050934;27;101660;-68
2022/09/24 03:23:02;;;;;;;10.30;5.93;;;;;;;17.09;48.19;100981.16;5050852;27;99113;-67
2022/09/24 03:25:28;;;;;;;7.57;5.97;;;;;;;17.12;48.44;100984.53;5050208;27;96759;-68
2022/09/24 03:27:55;;;;;;;10.13;5.85;;;;;;;17.16;48.64;100984.31;5050215;27;97439;-68
2022/09/24 03:33:06;;;;;;;8.65;5.85;;;;;;;16.86;49.44;100979.84;5046860;27;98450;-68
2022/09/24 03:35:34;;;;;;;8.77;6.05;;;;;;;17.05;48.97;100969.81;5051211;27;97116;-67
2022/09/24 03:38:05;;;;;;;10.40;6.13;;;;;;;16.95;49.22;100968.63;5049603;27;96843;-68
2022/09/24 03:40:32;;;;;;;7.10;5.85;;;;;;;17.16;48.77;100978.97;5052007;27;101077;-68
2022/09/24 03:42:58;;;;;;;8.05;6.00;;;;;;;17.10;49.04;100975.72;5051370;27;99365;-69
2022/09/24 03:45:24;;;;;;;9.05;5.50;;;;;;;16.82;49.62;100967.59;5050494;27;97651;-68
2022/09/24 03:47:51;;;;;;;13.23;6.00;;;;;;;17.05;48.89;100974.28;5050026;27;96846;-69
2022/09/24 03:50:17;;;;;;;9.02;6.18;;;;;;;17.33;48.42;100969.00;5051041;27;99288;-68
2022/09/24 03:52:44;;;;;;;13.60;6.60;;;;;;;17.37;47.80;100959.03;5052582;27;97602;-67
2022/09/24 03:55:13;;;;;;;7.78;6.40;;;;;;;17.38;47.54;100961.59;5049928;27;97245;-67
2022/09/24 03:57:40;;;;;;;14.00;7.13;;;;;;;17.24;47.71;100956.22;5048785;27;96802;-68
2022/09/24 04:00:07;;;;;;;10.85;6.90;;;;;;;17.16;48.08;100954.94;5049759;27;97665;-67
2022/09/24 04:02:35;;;;;;;9.95;7.35;;;;;;;17.25;47.85;100949.06;5050961;27;99106;-67
2022/09/24 04:05:02;;;;;;;12.90;6.85;;;;;;;17.10;48.29;100957.03;5048431;27;96849;-68
2022/09/24 04:07:31;;;;;;;8.93;5.90;;;;;;;16.96;48.60;100957.00;5051775;27;96815;-67
2022/09/24 04:09:58;;;;;;;9.63;6.07;;;;;;;16.92;48.64;100952.78;5050874;27;99345;-68
2022/09/24 04:12:30;;;;;;;8.05;5.57;;;;;;;16.73;48.95;100957.47;5051130;27;98894;-68
2022/09/24 04:14:56;;;;;;;9.45;6.13;;;;;;;16.90;48.72;100953.81;5049661;27;97258;-68
2022/09/24 04:17:23;;;;;;;9.02;6.28;;;;;;;16.68;49.01;100954.19;5048072;27;97177;-68
2022/09/24 04:19:52;;;;;;;10.82;5.82;;;;;;;16.88;48.80;100945.91;5050611;27;99275;-68
2022/09/24 04:22:19;;;;;;;12.52;6.10;;;;;;;16.78;48.99;100943.88;5050398;27;98652;-68
2022/09/24 04:24:45;;;;;;;8.40;6.35;;;;;;;16.77;48.99;100947.47;5048286;27;96787;-68
2022/09/24 04:27:14;;;;;;;11.50;7.30;;;;;;;16.79;48.81;100950.94;5050767;27;97364;-69
2022/09/24 04:29:41;;;;;;;11.30;6.00;;;;;;;17.01;48.53;100946.03;5048802;27;97752;-69
2022/09/24 04:32:08;;;;;;;8.52;6.22;;;;;;;16.81;49.00;100946.34;5051021;27;99529;-69
2022/09/24 04:34:35;;;;;;;11.27;6.55;;;;;;;16.81;49.42;100947.19;5049701;27;98834;-68
2022/09/24 04:37:01;;;;;;;10.68;6.32;;;;;;;16.76;49.79;100957.28;5051069;27;96938;-68
2022/09/24 04:39:27;;;;;;;9.52;6.45;;;;;;;16.71;50.13;100957.56;5052164;27;102101;-68
2022/09/24 04:41:54;;;;;;;11.13;5.93;;;;;;;16.75;50.63;100955.56;5054196;27;100955;-69
2022/09/24 04:44:22;;;;;;;10.52;5.78;;;;;;;16.78;50.52;100959.88;5048191;27;96891;-68
2022/09/24 04:46:50;;;;;;;9.00;5.80;;;;;;;16.83;50.28;100953.31;5053348;27;96795;-69
2022/09/24 04:49:16;;;;;;;12.48;5.40;;;;;;;16.73;50.73;100958.34;5051125;27;99915;-68
2022/09/24 04:51:42;;;;;;;14.07;5.63;;;;;;;16.74;50.53;100959.19;5054626;27;97506;-68
2022/09/24 04:54:10;;;;;;;8.95;5.82;;;;;;;16.81;50.56;100955.19;5052158;27;97046;-68
2022/09/24 04:56:37;;;;;;;9.57;5.85;;;;;;;16.80;50.50;100956.19;5054314;27;96888;-68
2022/09/24 04:59:05;;;;;;;11.48;7.00;;;;;;;17.12;49.69;100964.97;5052127;27;99068;-68
2022/09/24 05:01:33;;;;;;;11.60;6.68;;;;;;;16.87;50.16;100957.50;5052197;27;98743;-68
2022/09/24 05:04:01;;;;;;;9.20;6.38;;;;;;;16.76;50.50;100956.44;5051000;27;96972;-68
2022/09/24 05:06:28;;;;;;;7.82;5.80;;;;;;;16.92;49.84;100954.59;5054759;27;96802;-67
2022/09/24 05:08:54;;;;;;;10.85;6.90;;;;;;;17.08;49.31;100961.59;5053072;27;99433;-69
2022/09/24 05:11:21;;;;;;;12.15;6.40;;;;;;;17.11;49.49;100952.56;5052419;27;98834;-68
2022/09/24 05:13:47;;;;;;;9.32;5.90;;;;;;;17.13;49.41;100951.50;5053912;27;96797;-68
2022/09/24 05:16:15;;;;;;;9.35;6.00;;;;;;;17.24;48.95;100950.88;5052719;27;97052;-67
2022/09/24 05:18:42;;;;;;;8.30;6.07;;;;;;;17.31;48.71;100951.38;5053339;27;98902;-68
2022/09/24 05:21:13;;;;;;;10.98;6.70;;;;;;;17.25;48.73;100951.75;5049824;27;99363;-69
2022/09/24 05:23:39;;;;;;;9.65;6.70;;;;;;;17.11;48.75;100956.09;5053118;27;96787;-67
2022/09/24 05:28:53;;;;;;;10.50;5.80;;;;;;;16.91;49.08;100967.09;5050639;27;97358;-67
2022/09/24 05:31:22;;;;;;;7.85;5.70;;;;;;;17.05;48.94;100966.28;5047611;27;99882;-67
2022/09/24 05:33:49;;;;;;;7.40;5.60;;;;;;;16.82;49.91;100962.25;5045948;27;97319;-67
2022/09/24 05:36:18;;;;;;;11.57;6.65;;;;;;;17.05;49.31;100953.78;5047225;27;97791;-69
2022/09/24 05:38:44;;;;;;;10.02;6.13;;;;;;;17.03;49.20;100955.69;5048724;27;99795;-67
2022/09/24 05:41:12;;;;;;;10.45;6.30;;;;;;;17.08;49.00;100958.94;5051709;27;98974;-68
2022/09/24 05:43:39;;;;;;;10.15;5.88;;;;;;;17.11;48.64;100955.22;5049120;27;97146;-66
2022/09/24 05:46:06;;;;;;;11.98;6.05;;;;;;;16.86;48.86;100958.50;5050024;27;96824;-66
2022/09/24 05:48:33;;;;;;;8.18;5.70;;;;;;;17.19;48.57;100960.13;5049074;27;99197;-68
2022/09/24 05:51:00;;;;;;;9.80;7.00;;;;;;;17.26;48.16;100957.00;5050078;27;99163;-67
2022/09/24 05:53:34;;;;;;;12.02;6.40;;;;;;;17.44;47.88;100960.38;5048785;27;97133;-68
2022/09/24 05:56:05;;;;;;;10.48;6.63;;;;;;;17.34;47.99;100961.84;5050275;27;97032;-67
2022/09/24 05:58:33;;;;;;;8.43;5.72;;;;;;;17.36;48.26;100958.16;5048796;27;101592;-67
2022/09/24 06:01:00;;;;;;;12.30;6.40;;;;;;;17.31;48.31;100959.38;5049299;27;101800;-68
2022/09/24 06:03:28;;;;;;;9.05;5.90;;;;;;;17.24;48.12;100958.91;5049196;27;96951;-68
2022/09/24 06:06:00;;;;;;;12.35;5.85;;;;;;;17.26;48.05;100967.69;5051770;27;96696;-68
2022/09/24 06:08:31;;;;;;;10.68;5.95;;;;;;;17.27;47.93;100974.72;5049953;27;98896;-67
2022/09/24 06:10:59;;;;;;;9.68;6.05;;;;;;;17.30;48.08;100973.69;5051198;27;98947;-67
2022/09/24 06:13:25;;;;;;;17.95;6.65;;;;;;;17.24;48.50;100974.06;5048368;27;97066;-67
2022/09/24 06:15:54;;;;;;;15.35;6.57;;;;;;;17.35;48.53;100975.13;5046805;27;97020;-66
2022/09/24 06:18:23;;;;;;;10.50;6.05;;;;;;;17.16;48.29;100976.31;5044167;27;99992;-69
2022/09/24 06:20:49;;;;;;;11.65;5.75;;;;;;;17.18;48.53;100969.09;5039077;27;97631;-67
2022/09/24 06:23:18;;;;;;;8.70;6.13;;;;;;;17.41;48.11;100971.22;5046356;27;96925;-68
2022/09/24 06:25:52;;;;;;;7.63;5.70;;;;;;;17.42;48.00;100978.28;5045105;27;97162;-68
2022/09/24 06:28:21;;;;;;;7.38;6.15;;;;;;;17.46;48.08;100983.34;5053831;27;98985;-69
2022/09/24 06:30:47;;;;;;;10.93;5.88;;;;;;;17.58;47.50;100978.25;5046101;27;99310;-68
2022/09/24 06:33:14;;;;;;;8.38;6.40;;;;;;;17.71;47.39;100985.44;5053262;27;96798;-69
2022/09/24 06:35:42;;;;;;;9.95;6.43;;;;;;;17.56;47.38;100969.44;5052493;27;96876;-68
2022/09/24 06:38:12;;;;;;;9.98;5.63;;;;;;;17.88;46.65;100977.25;5053837;27;99158;-68
2022/09/24 06:40:39;;;;;;;9.95;5.45;;;;;;;17.76;46.93;100967.31;5047572;27;98103;-68
2022/09/24 06:43:09;;;;;;;8.18;6.07;;;;;;;17.87;46.57;100975.50;5050484;27;98738;-68
2022/09/24 06:45:36;;;;;;;11.07;5.88;;;;;;;17.81;46.81;100967.00;5045630;27;97235;-67
2022/09/24 06:48:04;;;;;;;14.68;5.90;;;;;;;18.04;46.40;100962.94;5053134;27;99382;-67
2022/09/24 06:50:33;;;;;;;9.75;6.32;;;;;;;18.08;46.39;100961.75;5052170;27;98857;-68
2022/09/24 06:53:00;;;;;;;13.07;6.18;;;;;;;18.00;46.24;100966.72;5052309;27;97785;-69
2022/09/24 06:55:29;;;;;;;9.13;6.03;;;;;;;18.15;46.04;100961.28;5051867;27;97788;-69
2022/09/24 06:58:03;;;;;;;10.20;5.75;;;;;;;18.06;45.73;100969.00;5051356;27;99495;-69
2022/09/24 07:00:31;;;;;;;9.55;5.97;;;;;;;18.15;45.45;100963.09;5051106;27;98852;-69
2022/09/24 07:03:00;;;;;;;7.20;5.80;;;;;;;18.15;45.54;100971.13;5050431;27;99031;-69
2022/09/24 07:05:26;;;;;;;9.13;5.80;;;;;;;18.37;45.45;100976.84;5052955;27;96765;-69
2022/09/24 07:07:52;;;;;;;9.20;5.95;;;;;;;18.43;45.50;100984.47;5049923;27;99320;-69
2022/09/24 07:10:19;;;;;;;9.45;5.57;;;;;;;18.10;46.44;100981.25;5050427;27;98911;-69
2022/09/24 07:12:48;;;;;;;9.85;6.00;;;;;;;18.05;46.46;100978.03;5050651;27;96916;-68
2022/09/24 07:15:15;;;;;;;9.13;5.78;;;;;;;18.07;46.07;100987.63;5051953;27;96858;-68
2022/09/24 07:17:43;;;;;;;11.02;6.45;;;;;;;18.17;46.17;100988.78;5051853;27;98911;-69
2022/09/24 07:20:09;;;;;;;8.40;5.88;;;;;;;17.93;46.78;100998.31;5049232;27;99555;-69
2022/09/24 07:22:38;;;;;;;8.30;5.57;;;;;;;18.18;46.03;100995.00;5050408;27;96828;-69
2022/09/24 07:25:06;;;;;;;9.32;6.22;;;;;;;17.79;46.92;101001.84;5051238;27;97003;-68
2022/09/24 07:27:33;;;;;;;9.10;6.22;;;;;;;18.33;45.77;101004.72;5050762;27;98933;-68
2022/09/24 07:29:59;;;;;;;8.98;6.88;;;;;;;18.34;45.52;101001.09;5048819;27;98742;-69
2022/09/24 07:32:26;;;;;;;11.85;6.70;;;;;;;18.35;45.73;101000.13;5050936;27;97611;-69
2022/09/24 07:34:54;;;;;;;8.05;6.20;;;;;;;18.21;45.58;100990.31;5050857;27;97500;-69
2022/09/24 07:37:20;;;;;;;12.38;6.90;;;;;;;18.52;45.33;101002.56;5051782;27;98979;-69
2022/09/24 07:39:46;;;;;;;10.10;6.80;;;;;;;18.67;44.88;101006.13;5049423;27;98832;-69
2022/09/24 07:42:15;;;;;;;12.00;6.82;;;;;;;18.63;44.83;100997.44;5047268;27;96914;-67
2022/09/24 07:44:41;;;;;;;8.93;5.70;;;;;;;18.48;45.34;100993.03;5047591;27;97038;-68
2022/09/24 07:47:09;;;;;;;11.55;6.05;;;;;;;18.49;45.66;100994.75;5047271;27;101668;-67
2022/09/24 07:49:38;;;;;;;9.82;6.15;;;;;;;18.36;45.90;100998.31;5049428;27;99202;-67
2022/09/24 07:52:07;;;;;;;14.23;6.63;;;;;;;18.48;45.88;100993.03;5052293;27;96825;-69
2022/09/24 07:54:33;;;;;;;10.45;6.50;;;;;;;18.62;45.60;100998.41;5051450;27;96843;-67
2022/09/24 07:57:01;;;;;;;11.30;6.32;;;;;;;18.43;45.76;100995.16;5047003;27;99437;-69
2022/09/24 07:59:33;;;;;;;10.35;7.03;;;;;;;18.66;45.47;101007.94;5052246;27;99067;-67
2022/09/24 08:02:00;;;;;;;9.80;6.15;;;;;;;18.53;45.81;101008.78;5051213;27;96926;-68
2022/09/24 08:04:26;;;;;;;7.85;6.07;;;;;;;18.69;45.52;101012.25;5052561;27;96838;-69
2022/09/24 08:06:52;;;;;;;14.00;6.55;;;;;;;18.82;45.10;101001.59;5051133;27;99295;-69
2022/09/24 08:09:20;;;;;;;11.93;6.70;;;;;;;18.61;45.63;101010.06;5053020;27;101744;-68
2022/09/24 08:11:48;;;;;;;12.48;6.90;;;;;;;18.73;45.44;101007.53;5050162;27;96895;-68
2022/09/24 08:14:15;;;;;;;11.95;6.45;;;;;;;18.66;45.21;100997.22;5049800;27;97285;-68
2022/09/24 08:16:41;;;;;;;8.10;6.30;;;;;;;18.77;45.24;101004.59;5054206;27;99897;-69
2022/09/24 08:19:12;;;;;;;9.85;6.40;;;;;;;18.93;44.79;101001.72;5055785;27;98838;-68
2022/09/24 08:21:39;;;;;;;8.15;6.82;;;;;;;18.95;44.21;101003.38;5054062;27;97068;-68
2022/09/24 08:24:08;;;;;;;6.57;5.70;;;;;;;18.96;44.09;101004.22;5055236;27;97160;-70
2022/09/24 08:26:38;;;;;;;11.85;6.60;;;;;;;19.01;44.07;101002.09;5056583;27;100264;-68
2022/09/24 08:29:05;;;;;;;10.00;5.68;;;;;;;18.96;43.91;101001.56;5054703;27;101598;-68
2022/09/24 08:31:32;;;;;;;10.75;6.20;;;;;;;18.90;44.21;101007.31;5056297;27;96692;-69
2022/09/24 08:33:59;;;;;;;10.38;6.60;;;;;;;19.26;43.37;101004.84;5055411;27;97035;-67
2022/09/24 08:36:26;;;;;;;10.05;6.65;;;;;;;19.20;43.71;100999.03;5055641;27;98832;-66
2022/09/24 08:38:53;;;;;;;11.02;6.55;;;;;;;19.53;43.62;101001.28;5054553;27;97732;-68
2022/09/24 08:41:36;;;;;;;15.77;7.00;;;;;;;19.20;44.17;101007.94;5055849;27;96730;-68
2022/09/24 08:44:12;;;;;;;10.07;6.35;;;;;;;19.39;42.92;101000.38;5047729;27;97026;-68
2022/09/24 08:49:33;;;;;;;10.98;6.18;;;;;;;19.96;42.31;101002.69;5052089;27;97524;-68
2022/09/24 08:52:06;;;;;;;11.07;6.97;;;;;;;20.30;41.68;101001.16;5055783;27;96977;-66
2022/09/24 08:54:36;;;;;;;11.68;7.25;;;;;;;20.16;41.59;101002.13;5054219;27;96755;-68
2022/09/24 08:57:11;;;;;;;16.33;7.05;;;;;;;20.38;40.91;101008.69;5054726;27;98881;-68
2022/09/24 08:59:42;;;;;;;9.25;7.05;;;;;;;20.27;40.84;101007.63;5054045;27;98810;-67
2022/09/24 09:02:35;;;;;;;11.70;6.70;;;;;;;20.25;41.13;101003.31;5055233;27;96762;-67
2022/09/24 09:05:11;;;;;;;11.60;6.90;;;;;;;20.36;41.54;101005.25;5050860;27;96828;-69
2022/09/24 09:07:44;;;;;;;;;;;;;;;20.68;41.20;101011.81;5054743;27;99231;-69
2022/09/24 09:10:17;;;;;;;15.60;6.68;;;;;;;20.72;40.76;101007.09;5052890;27;99402;-69
2022/09/24 09:12:51;;;;;;;11.07;6.65;;;;;;;20.99;40.34;101015.78;5052581;27;96894;-69
2022/09/24 09:15:21;;;;;;;9.45;6.68;;;;;;;21.13;39.68;101006.72;5053141;27;96765;-68
2022/09/24 09:17:52;;;;;;;13.40;7.38;;;;;;;21.30;38.94;101009.84;5040951;27;99758;-68
2022/09/24 09:20:23;;;;;;;12.07;6.70;;;;;;;21.46;39.34;101009.56;5051797;27;99365;-68
2022/09/24 09:22:54;;;;;;;11.10;5.85;;;;;;;21.63;38.70;101006.41;5051832;27;97266;-68
2022/09/24 09:25:24;;;;;;;12.48;6.47;;;;;;;21.45;38.85;101007.84;5050835;27;97252;-69
2022/09/24 09:28:00;;;;;;;10.10;6.63;;;;;;;21.52;38.31;101013.59;5049255;27;97158;-69
2022/09/24 09:30:33;;;;;;;9.50;6.60;;;;;;;21.84;37.93;101002.06;5054041;27;98902;-69
2022/09/24 09:33:17;;;;;;;12.23;6.63;;;;;;;21.59;38.24;101004.09;5052782;27;98996;-69
2022/09/24 09:35:51;;;;;;;9.88;6.90;;;;;;;21.51;38.46;101007.38;5051946;27;96772;-69
2022/09/24 09:38:23;;;;;;;12.00;8.30;;;;;;;21.43;38.89;100999.03;5050444;27;100267;-69
2022/09/24 09:40:57;;;;;;;9.75;7.20;;;;;;;21.45;38.94;100994.41;5049117;27;100481;-69
2022/09/24 09:43:25;;;;;;;13.95;7.43;;;;;;;21.49;39.46;100998.53;5052265;27;97208;-69
2022/09/24 09:46:06;;;;;;;9.25;7.85;;;;;;;21.43;39.10;100999.88;5055066;27;97282;-70
2022/09/24 09:48:44;;;;;;;10.27;6.90;;;;;;;21.77;38.33;101005.34;5044017;27;98898;-70
2022/09/24 09:51:18;;;;;;;14.15;7.68;;;;;;;21.52;38.53;101003.69;5053441;27;99198;-70
2022/09/24 09:53:54;;;;;;;10.18;7.15;;;;;;;21.46;38.70;100996.94;5049434;27;97083;-71
2022/09/24 09:56:24;;;;;;;12.13;6.63;;;;;;;21.29;39.55;100997.38;5054821;27;96872;-70
2022/09/24 09:58:54;;;;;;;11.55;6.43;;;;;;;21.34;38.54;101000.56;5054162;27;99348;-70
2022/09/24 10:01:32;;;;;;;12.10;6.60;;;;;;;21.22;39.29;101003.34;5055075;27;100639;-71
2022/09/24 10:04:03;;;;;;;18.13;7.55;;;;;;;21.19;39.06;100998.22;5053922;27;96697;-69
2022/09/24 10:06:35;;;;;;;9.35;6.35;;;;;;;21.01;39.16;100995.88;5053938;27;97750;-69
2022/09/24 10:09:12;;;;;;;7.93;6.13;;;;;;;21.27;38.85;100998.47;5054544;27;98999;-69
2022/09/24 10:11:38;;;;;;;9.73;6.40;;;;;;;21.47;38.56;100995.13;5049224;27;98856;-70
2022/09/24 10:14:08;;;;;;;9.27;6.90;;;;;;;21.37;39.18;100991.44;5052944;27;96813;-69
2022/09/24 10:16:43;;;;;;;7.03;6.32;;;;;;;21.38;38.93;100995.84;5049022;27;96760;-70
2022/09/24 10:19:17;;;;;;;11.60;6.97;;;;;;;21.38;39.05;100995.84;5050048;27;99240;-69
2022/09/24 10:21:43;;;;;;;14.27;6.43;;;;;;;21.44;39.35;100996.22;5054449;27;100766;-69
2022/09/24 10:24:16;;;;;;;9.75;5.90;;;;;;;21.40;38.97;100989.34;5053701;27;97066;-69
2022/09/24 10:26:45;;;;;;;8.68;5.75;;;;;;;21.36;39.07;101001.31;5054084;27;96645;-70
2022/09/24 10:32:03;;;;;;;11.10;7.30;;;;;;;21.57;38.67;100998.81;5053939;27;97099;-68
2022/09/24 10:34:31;;;;;;;10.88;6.43;;;;;;;21.61;38.05;101002.13;5053716;27;96802;-70
2022/09/24 10:37:02;;;;;;;8.63;5.90;;;;;;;21.42;38.28;101000.00;5052557;27;96903;-69
2022/09/24 10:39:31;;;;;;;7.90;5.68;;;;;;;21.51;38.52;100988.53;5053129;27;98790;-67
2022/09/24 10:41:59;;;;;;;9.45;5.75;;;;;;;21.71;38.46;100998.59;5053144;27;98180;-68
2022/09/24 10:44:32;;;;;;;9.10;5.95;;;;;;;21.65;38.29;100998.22;5053621;27;96908;-68
2022/09/24 10:47:20;;;;;;;7.63;5.80;;;;;;;21.62;38.51;100996.63;5054071;27;96769;-67
2022/09/24 10:50:07;;;;;;;9.45;6.18;;;;;;;21.47;38.77;100995.13;5049415;27;98939;-70
2022/09/24 10:52:40;;;;;;;;;;;;;;;21.69;38.56;101002.38;5050957;27;98220;-68
2022/09/24 10:55:20;;;;;;;8.93;5.82;;;;;;;21.76;38.44;100998.25;5052873;27;96825;-67
2022/09/24 10:57:57;;;;;;;7.28;5.45;;;;;;;21.58;38.15;101003.22;5053592;27;96842;-68
2022/09/24 11:00:26;;;;;;;10.15;6.18;;;;;;;21.84;38.52;100998.50;5046938;27;98987;-68
2022/09/24 11:03:21;;;;;;;9.35;6.13;;;;;;;21.80;38.08;101003.25;5049789;27;99284;-68
2022/09/24 11:05:52;;;;;;;7.72;5.72;;;;;;;21.94;37.78;101001.31;5050604;27;97020;-68
2022/09/24 11:08:27;;;;;;;9.00;6.68;;;;;;;21.91;38.08;101009.63;5050863;27;96801;-67
2022/09/24 11:11:08;;;;;;;8.88;6.07;;;;;;;21.99;37.84;101005.38;5053057;27;98893;-69
2022/09/24 11:13:44;;;;;;;8.57;6.10;;;;;;;22.57;37.03;101000.72;5045554;27;97671;-68
2022/09/24 11:16:31;;;;;;;9.82;5.97;;;;;;;22.50;37.20;100996.81;5046971;27;97608;-68
2022/09/24 11:19:02;;;;;;;11.23;5.93;;;;;;;22.77;36.40;101001.81;4998058;27;97771;-68
2022/09/24 11:21:56;;;;;;;10.93;5.43;;;;;;;22.80;36.72;100994.34;5049221;27;97278;-68
2022/09/24 11:24:42;;;;;;;14.95;6.55;;;;;;;22.77;36.75;100996.44;5039057;27;100729;-68
2022/09/24 11:27:27;;;;;;;7.05;5.50;;;;;;;23.05;36.52;100993.13;5050953;27;96763;-69
2022/09/24 11:30:11;;;;;;;8.70;5.43;;;;;;;23.20;36.30;100982.91;5049829;27;98748;-66
2022/09/24 11:32:50;;;;;;;6.97;4.68;;;;;;;22.94;35.51;100980.56;5050781;27;98371;-67
2022/09/24 11:35:32;;;;;;;6.35;4.57;;;;;;;22.97;35.12;100974.91;5050920;27;98649;-68
2022/09/24 11:38:01;;;;;;;6.70;4.97;;;;;;;22.89;35.98;100973.88;5050474;27;97069;-69
2022/09/24 11:40:40;;;;;;;7.25;4.68;;;;;;;22.95;35.35;100970.66;5051626;27;98476;-68
2022/09/24 11:43:31;;;;;;;9.38;4.50;;;;;;;22.97;35.49;100976.78;5050198;27;99456;-68
2022/09/24 11:46:11;;;;;;;5.88;4.63;;;;;;;23.07;35.46;100972.31;5049255;27;100156;-68
2022/09/24 11:48:51;;;;;;;8.40;4.45;;;;;;;23.20;35.08;100978.38;5048160;27;97037;-67
2022/09/24 11:51:30;;;;;;;8.95;4.72;;;;;;;23.55;34.32;100979.97;5049749;27;96827;-67
2022/09/24 11:54:00;;;;;;;5.43;4.20;;;;;;;23.24;34.39;100976.28;5047237;27;100625;-67
2022/09/24 11:56:32;;;;;;;8.15;4.68;;;;;;;23.17;34.30;100986.72;5051249;27;97831;-67